sensor_id;sensor_type;location;lat;lon;timestamp;temperature;humidity
5476;DHT22;2760;50.000;9.194;2022-11-20T00:00:12;3.50;99.90
5476;DHT22;2760;50.000;9.194;2022-11-20T00:02:39;2.80;99.90
5476;DHT22;2760;50.000;9.194;2022-11-20T00:05:08;3.90;99.90
5476;DHT22;2760;50.000;9.194;2022-11-20T00:07:35;2.30;99.90
5476;DHT22;2760;50.000;9.194;2022-11-20T00:10:03;2.90;99.90
5476;DHT22;2760;50.000;9.194;2022-11-20T00:12:30;2.60;99.90
5476;DHT22;2760;50.000;9.194;2022-11-20T00:14:57;5.10;99.90
5476;DHT22;2760;50.000;9.194;2022-11-20T00:17:24;3.80;99.90
5476;DHT22;2760;50.000;9.194;2022-11-20T00:19:51;5.10;99.90
5476;DHT22;2760;50.000;9.194;2022-11-20T00:22:20;3.70;99.90
5476;DHT22;2760;50.000;9.194;2022-11-20T00:24:47;4.80;99.90
5476;DHT22;2760;50.000;9.194;2022-11-20T00:27:14;3.80;99.90
5476;DHT22;2760;50.000;9.194;2022-11-20T00:29:40;2.90;99.90
5476;DHT22;2760;50.000;9.194;2022-11-20T00:32:07;3.00;99.90
5476;DHT22;2760;50.000;9.194;2022-11-20T00:34:34;2.80;99.90
5476;DHT22;2760;50.000;9.194;2022-11-20T00:37:01;4.80;99.90
5476;DHT22;2760;50.000;9.194;2022-11-20T00:39:31;3.80;99.90
5476;DHT22;2760;50.000;9.194;2022-11-20T00:41:58;5.40;99.90
5476;DHT22;2760;50.000;9.194;2022-11-20T00:44:25;5.20;99.90
5476;DHT22;2760;50.000;9.194;2022-11-20T00:46:52;2.80;99.90
5476;DHT22;2760;50.000;9.194;2022-11-20T00:49:19;3.00;99.90
5476;DHT22;2760;50.000;9.194;2022-11-20T00:51:46;2.90;99.90
5476;DHT22;2760;50.000;9.194;2022-11-20T00:54:13;3.10;99.90
5476;DHT22;2760;50.000;9.194;2022-11-20T00:56:42;2.80;99.90
5476;DHT22;2760;50.000;9.194;2022-11-20T00:59:09;2.80;99.90
5476;DHT22;2760;50.000;9.194;2022-11-20T01:01:36;2.80;99.90
5476;DHT22;2760;50.000;9.194;2022-11-20T01:04:04;3.30;99.90
5476;DHT22;2760;50.000;9.194;2022-11-20T01:06:33;4.80;99.90
5476;DHT22;2760;50.000;9.194;2022-11-20T01:09:07;2.90;99.90
5476;DHT22;2760;50.000;9.194;2022-11-20T01:11:35;2.80;99.90
5476;DHT22;2760;50.000;9.194;2022-11-20T01:14:06;2.90;99.90
5476;DHT22;2760;50.000;9.194;2022-11-20T01:16:35;2.90;99.90
5476;DHT22;2760;50.000;9.194;2022-11-20T01:19:04;2.90;99.90
5476;DHT22;2760;50.000;9.194;2022-11-20T01:21:33;4.40;99.90
5476;DHT22;2760;50.000;9.194;2022-11-20T01:24:00;4.40;99.90
5476;DHT22;2760;50.000;9.194;2022-11-20T01:26:29;4.10;99.90
5476;DHT22;2760;50.000;9.194;2022-11-20T01:28:57;2.80;99.90
5476;DHT22;2760;50.000;9.194;2022-11-20T01:31:28;3.40;99.90
5476;DHT22;2760;50.000;9.194;2022-11-20T01:33:59;3.20;99.90
5476;DHT22;2760;50.000;9.194;2022-11-20T01:36:30;3.70;99.90
5476;DHT22;2760;50.000;9.194;2022-11-20T01:38:59;2.90;99.90
5476;DHT22;2760;50.000;9.194;2022-11-20T01:41:29;3.90;99.90
5476;DHT22;2760;50.000;9.194;2022-11-20T01:44:15;-0.80;99.90
5476;DHT22;2760;50.000;9.194;2022-11-20T01:46:52;2.80;99.90
5476;DHT22;2760;50.000;9.194;2022-11-20T01:49:26;2.80;99.90
5476;DHT22;2760;50.000;9.194;2022-11-20T01:51:57;4.90;99.90
5476;DHT22;2760;50.000;9.194;2022-11-20T01:54:30;3.90;99.90
5476;DHT22;2760;50.000;9.194;2022-11-20T01:56:59;2.90;99.90
5476;DHT22;2760;50.000;9.194;2022-11-20T01:59:28;4.00;99.90
5476;DHT22;2760;50.000;9.194;2022-11-20T02:01:57;5.00;99.90
5476;DHT22;2760;50.000;9.194;2022-11-20T02:04:25;3.00;99.90
5476;DHT22;2760;50.000;9.194;2022-11-20T02:06:58;5.00;99.90
5476;DHT22;2760;50.000;9.194;2022-11-20T02:09:26;5.20;99.90
5476;DHT22;2760;50.000;9.194;2022-11-20T02:11:54;3.00;99.90
5476;DHT22;2760;50.000;9.194;2022-11-20T02:14:22;5.20;99.90
5476;DHT22;2760;50.000;9.194;2022-11-20T02:16:49;3.60;99.90
5476;DHT22;2760;50.000;9.194;2022-11-20T02:19:23;5.20;99.90
5476;DHT22;2760;50.000;9.194;2022-11-20T02:21:59;5.00;99.90
5476;DHT22;2760;50.000;9.194;2022-11-20T02:24:29;2.90;99.90
5476;DHT22;2760;50.000;9.194;2022-11-20T02:26:58;5.00;99.90
5476;DHT22;2760;50.000;9.194;2022-11-20T02:29:31;4.40;99.90
5476;DHT22;2760;50.000;9.194;2022-11-20T02:32:00;2.80;99.90
5476;DHT22;2760;50.000;9.194;2022-11-20T02:34:28;2.80;99.90
5476;DHT22;2760;50.000;9.194;2022-11-20T02:36:56;4.40;99.90
5476;DHT22;2760;50.000;9.194;2022-11-20T02:39:25;3.60;99.90
5476;DHT22;2760;50.000;9.194;2022-11-20T02:41:55;5.20;99.90
5476;DHT22;2760;50.000;9.194;2022-11-20T02:44:22;3.20;99.90
5476;DHT22;2760;50.000;9.194;2022-11-20T02:46:50;2.80;99.90
5476;DHT22;2760;50.000;9.194;2022-11-20T02:49:17;3.00;99.90
5476;DHT22;2760;50.000;9.194;2022-11-20T02:51:44;3.60;99.90
5476;DHT22;2760;50.000;9.194;2022-11-20T02:54:11;4.30;99.90
5476;DHT22;2760;50.000;9.194;2022-11-20T02:56:38;5.10;99.90
5476;DHT22;2760;50.000;9.194;2022-11-20T02:59:07;2.90;99.90
5476;DHT22;2760;50.000;9.194;2022-11-20T03:01:34;3.80;99.90
5476;DHT22;2760;50.000;9.194;2022-11-20T03:04:01;2.80;99.90
5476;DHT22;2760;50.000;9.194;2022-11-20T03:06:28;3.90;99.90
5476;DHT22;2760;50.000;9.194;2022-11-20T03:08:55;2.90;99.90
5476;DHT22;2760;50.000;9.194;2022-11-20T03:11:23;5.10;99.90
5476;DHT22;2760;50.000;9.194;2022-11-20T03:13:51;2.70;99.90
5476;DHT22;2760;50.000;9.194;2022-11-20T03:16:21;2.60;99.90
5476;DHT22;2760;50.000;9.194;2022-11-20T03:18:49;3.60;99.90
5476;DHT22;2760;50.000;9.194;2022-11-20T03:21:18;2.80;99.90
5476;DHT22;2760;50.000;9.194;2022-11-20T03:23:45;2.80;99.90
5476;DHT22;2760;50.000;9.194;2022-11-20T03:26:15;2.70;99.90
5476;DHT22;2760;50.000;9.194;2022-11-20T03:28:45;2.70;99.90
5476;DHT22;2760;50.000;9.194;2022-11-20T03:31:15;4.40;99.90
5476;DHT22;2760;50.000;9.194;2022-11-20T03:33:43;3.30;99.90
5476;DHT22;2760;50.000;9.194;2022-11-20T03:36:12;4.70;99.90
5476;DHT22;2760;50.000;9.194;2022-11-20T03:38:40;2.60;99.90
5476;DHT22;2760;50.000;9.194;2022-11-20T03:41:08;2.70;99.90
5476;DHT22;2760;50.000;9.194;2022-11-20T03:43:35;2.90;99.90
5476;DHT22;2760;50.000;9.194;2022-11-20T03:46:03;2.90;99.90
5476;DHT22;2760;50.000;9.194;2022-11-20T03:48:31;2.80;99.90
5476;DHT22;2760;50.000;9.194;2022-11-20T03:51:10;2.70;99.90
5476;DHT22;2760;50.000;9.194;2022-11-20T03:53:37;2.80;99.90
5476;DHT22;2760;50.000;9.194;2022-11-20T03:56:05;2.80;99.90
5476;DHT22;2760;50.000;9.194;2022-11-20T03:58:33;2.70;99.90
5476;DHT22;2760;50.000;9.194;2022-11-20T04:01:05;2.60;99.90
5476;DHT22;2760;50.000;9.194;2022-11-20T04:03:33;5.00;99.90
5476;DHT22;2760;50.000;9.194;2022-11-20T04:06:02;4.90;99.90
5476;DHT22;2760;50.000;9.194;2022-11-20T04:08:33;3.90;99.90
5476;DHT22;2760;50.000;9.194;2022-11-20T04:11:10;2.70;99.90
5476;DHT22;2760;50.000;9.194;2022-11-20T04:13:37;2.80;99.90
5476;DHT22;2760;50.000;9.194;2022-11-20T04:16:08;2.80;99.90
5476;DHT22;2760;50.000;9.194;2022-11-20T04:18:35;2.80;99.90
5476;DHT22;2760;50.000;9.194;2022-11-20T04:21:03;3.90;99.90
5476;DHT22;2760;50.000;9.194;2022-11-20T04:23:32;2.70;99.90
5476;DHT22;2760;50.000;9.194;2022-11-20T04:26:03;2.80;99.90
5476;DHT22;2760;50.000;9.194;2022-11-20T04:28:30;2.80;99.90
5476;DHT22;2760;50.000;9.194;2022-11-20T04:31:08;4.90;99.90
5476;DHT22;2760;50.000;9.194;2022-11-20T04:33:36;2.80;99.90
5476;DHT22;2760;50.000;9.194;2022-11-20T04:36:05;5.30;99.90
5476;DHT22;2760;50.000;9.194;2022-11-20T04:38:34;2.80;99.90
5476;DHT22;2760;50.000;9.194;2022-11-20T04:41:02;3.40;99.90
5476;DHT22;2760;50.000;9.194;2022-11-20T04:43:29;4.00;99.90
5476;DHT22;2760;50.000;9.194;2022-11-20T04:45:57;3.10;99.90
5476;DHT22;2760;50.000;9.194;2022-11-20T04:48:26;2.80;99.90
5476;DHT22;2760;50.000;9.194;2022-11-20T04:50:53;3.60;99.90
5476;DHT22;2760;50.000;9.194;2022-11-20T04:53:21;2.90;99.90
5476;DHT22;2760;50.000;9.194;2022-11-20T04:55:49;5.10;99.90
5476;DHT22;2760;50.000;9.194;2022-11-20T04:58:16;3.80;99.90
5476;DHT22;2760;50.000;9.194;2022-11-20T05:00:43;2.90;99.90
5476;DHT22;2760;50.000;9.194;2022-11-20T05:03:10;2.90;99.90
5476;DHT22;2760;50.000;9.194;2022-11-20T05:05:37;3.90;99.90
5476;DHT22;2760;50.000;9.194;2022-11-20T05:08:04;5.20;99.90
5476;DHT22;2760;50.000;9.194;2022-11-20T05:10:31;2.40;99.90
5476;DHT22;2760;50.000;9.194;2022-11-20T05:12:59;3.00;99.90
5476;DHT22;2760;50.000;9.194;2022-11-20T05:15:26;5.30;99.90
5476;DHT22;2760;50.000;9.194;2022-11-20T05:17:53;3.30;99.90
5476;DHT22;2760;50.000;9.194;2022-11-20T05:20:20;5.30;99.90
5476;DHT22;2760;50.000;9.194;2022-11-20T05:22:47;4.00;99.90
5476;DHT22;2760;50.000;9.194;2022-11-20T05:25:14;2.90;99.90
5476;DHT22;2760;50.000;9.194;2022-11-20T05:27:41;2.90;99.90
5476;DHT22;2760;50.000;9.194;2022-11-20T05:30:12;2.80;99.90
5476;DHT22;2760;50.000;9.194;2022-11-20T05:32:39;2.90;99.90
5476;DHT22;2760;50.000;9.194;2022-11-20T05:35:07;3.20;99.90
5476;DHT22;2760;50.000;9.194;2022-11-20T05:37:34;3.00;99.90
5476;DHT22;2760;50.000;9.194;2022-11-20T05:40:01;3.00;99.90
5476;DHT22;2760;50.000;9.194;2022-11-20T05:42:30;3.00;99.90
5476;DHT22;2760;50.000;9.194;2022-11-20T05:44:57;3.00;99.90
5476;DHT22;2760;50.000;9.194;2022-11-20T05:47:26;3.10;99.90
5476;DHT22;2760;50.000;9.194;2022-11-20T05:49:53;3.90;99.90
5476;DHT22;2760;50.000;9.194;2022-11-20T05:52:20;5.00;99.90
5476;DHT22;2760;50.000;9.194;2022-11-20T05:54:47;4.90;99.90
5476;DHT22;2760;50.000;9.194;2022-11-20T05:57:14;4.80;99.90
5476;DHT22;2760;50.000;9.194;2022-11-20T05:59:42;3.00;99.90
5476;DHT22;2760;50.000;9.194;2022-11-20T06:02:09;3.00;99.90
5476;DHT22;2760;50.000;9.194;2022-11-20T06:04:38;4.50;99.90
5476;DHT22;2760;50.000;9.194;2022-11-20T06:07:05;5.30;99.90
5476;DHT22;2760;50.000;9.194;2022-11-20T06:09:33;3.00;99.90
5476;DHT22;2760;50.000;9.194;2022-11-20T06:12:00;3.00;99.90
5476;DHT22;2760;50.000;9.194;2022-11-20T06:14:27;3.10;99.90
5476;DHT22;2760;50.000;9.194;2022-11-20T06:16:54;3.10;99.90
5476;DHT22;2760;50.000;9.194;2022-11-20T06:19:21;3.10;99.90
5476;DHT22;2760;50.000;9.194;2022-11-20T06:21:49;3.10;99.90
5476;DHT22;2760;50.000;9.194;2022-11-20T06:24:16;3.10;99.90
5476;DHT22;2760;50.000;9.194;2022-11-20T06:26:44;4.90;99.90
5476;DHT22;2760;50.000;9.194;2022-11-20T06:29:11;4.90;99.90
5476;DHT22;2760;50.000;9.194;2022-11-20T06:31:38;3.10;99.90
5476;DHT22;2760;50.000;9.194;2022-11-20T06:34:05;5.20;99.90
5476;DHT22;2760;50.000;9.194;2022-11-20T06:36:33;5.40;99.90
5476;DHT22;2760;50.000;9.194;2022-11-20T06:39:02;5.30;99.90
5476;DHT22;2760;50.000;9.194;2022-11-20T06:41:29;4.30;99.90
5476;DHT22;2760;50.000;9.194;2022-11-20T06:43:56;3.10;99.90
5476;DHT22;2760;50.000;9.194;2022-11-20T06:46:24;3.40;99.90
5476;DHT22;2760;50.000;9.194;2022-11-20T06:48:51;3.10;99.90
5476;DHT22;2760;50.000;9.194;2022-11-20T06:51:18;4.80;99.90
5476;DHT22;2760;50.000;9.194;2022-11-20T06:53:47;5.30;99.90
5476;DHT22;2760;50.000;9.194;2022-11-20T06:56:15;5.40;99.90
5476;DHT22;2760;50.000;9.194;2022-11-20T06:58:42;3.10;99.90
5476;DHT22;2760;50.000;9.194;2022-11-20T07:01:11;5.50;99.90
5476;DHT22;2760;50.000;9.194;2022-11-20T07:03:39;5.40;99.90
5476;DHT22;2760;50.000;9.194;2022-11-20T07:06:07;5.40;99.90
5476;DHT22;2760;50.000;9.194;2022-11-20T07:08:34;3.20;99.90
5476;DHT22;2760;50.000;9.194;2022-11-20T07:11:04;2.90;99.90
5476;DHT22;2760;50.000;9.194;2022-11-20T07:13:32;3.20;99.90
5476;DHT22;2760;50.000;9.194;2022-11-20T07:16:00;3.20;99.90
5476;DHT22;2760;50.000;9.194;2022-11-20T07:18:28;3.30;99.90
5476;DHT22;2760;50.000;9.194;2022-11-20T07:20:55;4.40;99.90
5476;DHT22;2760;50.000;9.194;2022-11-20T07:23:22;4.70;99.90
5476;DHT22;2760;50.000;9.194;2022-11-20T07:25:49;5.10;99.90
5476;DHT22;2760;50.000;9.194;2022-11-20T07:28:16;4.80;99.90
5476;DHT22;2760;50.000;9.194;2022-11-20T07:30:49;5.50;99.90
5476;DHT22;2760;50.000;9.194;2022-11-20T07:33:16;3.30;99.90
5476;DHT22;2760;50.000;9.194;2022-11-20T07:35:43;4.60;99.90
5476;DHT22;2760;50.000;9.194;2022-11-20T07:38:10;5.40;99.90
5476;DHT22;2760;50.000;9.194;2022-11-20T07:40:37;5.40;99.90
5476;DHT22;2760;50.000;9.194;2022-11-20T07:43:04;4.60;99.90
5476;DHT22;2760;50.000;9.194;2022-11-20T07:45:31;3.20;99.90
5476;DHT22;2760;50.000;9.194;2022-11-20T07:47:59;3.30;99.90
5476;DHT22;2760;50.000;9.194;2022-11-20T07:50:26;3.60;99.90
5476;DHT22;2760;50.000;9.194;2022-11-20T07:53:00;5.50;99.90
5476;DHT22;2760;50.000;9.194;2022-11-20T07:55:27;4.60;99.90
5476;DHT22;2760;50.000;9.194;2022-11-20T07:57:54;4.60;99.90
5476;DHT22;2760;50.000;9.194;2022-11-20T08:00:22;4.20;99.90
5476;DHT22;2760;50.000;9.194;2022-11-20T08:02:50;3.20;99.90
5476;DHT22;2760;50.000;9.194;2022-11-20T08:05:18;3.40;99.90
5476;DHT22;2760;50.000;9.194;2022-11-20T08:07:45;3.40;99.90
5476;DHT22;2760;50.000;9.194;2022-11-20T08:10:14;4.90;99.90
5476;DHT22;2760;50.000;9.194;2022-11-20T08:12:45;3.40;99.90
5476;DHT22;2760;50.000;9.194;2022-11-20T08:15:36;3.40;99.90
5476;DHT22;2760;50.000;9.194;2022-11-20T08:18:05;3.40;99.90
5476;DHT22;2760;50.000;9.194;2022-11-20T08:20:35;3.30;99.90
5476;DHT22;2760;50.000;9.194;2022-11-20T08:23:03;3.50;99.90
5476;DHT22;2760;50.000;9.194;2022-11-20T08:25:31;3.50;99.90
5476;DHT22;2760;50.000;9.194;2022-11-20T08:28:00;3.50;99.90
5476;DHT22;2760;50.000;9.194;2022-11-20T08:30:27;3.50;99.90
5476;DHT22;2760;50.000;9.194;2022-11-20T08:33:00;3.50;99.90
5476;DHT22;2760;50.000;9.194;2022-11-20T08:35:27;4.80;99.90
5476;DHT22;2760;50.000;9.194;2022-11-20T08:37:55;5.60;99.90
5476;DHT22;2760;50.000;9.194;2022-11-20T08:40:22;5.80;99.90
5476;DHT22;2760;50.000;9.194;2022-11-20T08:42:50;5.70;99.90
5476;DHT22;2760;50.000;9.194;2022-11-20T08:45:18;5.80;99.90
5476;DHT22;2760;50.000;9.194;2022-11-20T08:47:45;3.50;99.90
5476;DHT22;2760;50.000;9.194;2022-11-20T08:50:14;3.50;99.90
5476;DHT22;2760;50.000;9.194;2022-11-20T08:52:42;3.60;99.90
5476;DHT22;2760;50.000;9.194;2022-11-20T08:55:12;5.90;99.90
5476;DHT22;2760;50.000;9.194;2022-11-20T08:57:39;6.00;99.90
5476;DHT22;2760;50.000;9.194;2022-11-20T09:00:08;5.10;99.90
5476;DHT22;2760;50.000;9.194;2022-11-20T09:02:36;3.60;99.90
5476;DHT22;2760;50.000;9.194;2022-11-20T09:05:04;6.20;99.90
5476;DHT22;2760;50.000;9.194;2022-11-20T09:07:31;3.70;99.90
5476;DHT22;2760;50.000;9.194;2022-11-20T09:09:58;3.90;99.90
5476;DHT22;2760;50.000;9.194;2022-11-20T09:12:27;5.70;99.90
5476;DHT22;2760;50.000;9.194;2022-11-20T09:14:54;5.30;99.90
5476;DHT22;2760;50.000;9.194;2022-11-20T09:17:21;4.50;99.90
5476;DHT22;2760;50.000;9.194;2022-11-20T09:19:48;6.20;99.90
5476;DHT22;2760;50.000;9.194;2022-11-20T09:22:15;6.00;99.90
5476;DHT22;2760;50.000;9.194;2022-11-20T09:24:42;4.10;99.90
5476;DHT22;2760;50.000;9.194;2022-11-20T09:27:09;4.20;99.90
5476;DHT22;2760;50.000;9.194;2022-11-20T09:29:37;4.10;99.90
5476;DHT22;2760;50.000;9.194;2022-11-20T09:32:05;4.50;99.90
5476;DHT22;2760;50.000;9.194;2022-11-20T09:34:32;4.10;99.90
5476;DHT22;2760;50.000;9.194;2022-11-20T09:36:59;6.40;99.90
5476;DHT22;2760;50.000;9.194;2022-11-20T09:39:26;6.50;99.90
5476;DHT22;2760;50.000;9.194;2022-11-20T09:42:05;4.40;99.90
5476;DHT22;2760;50.000;9.194;2022-11-20T09:44:53;4.20;99.90
5476;DHT22;2760;50.000;9.194;2022-11-20T09:47:32;4.20;99.90
5476;DHT22;2760;50.000;9.194;2022-11-20T09:50:19;4.70;99.90
5476;DHT22;2760;50.000;9.194;2022-11-20T09:53:01;4.40;99.90
5476;DHT22;2760;50.000;9.194;2022-11-20T09:55:31;3.90;99.90
5476;DHT22;2760;50.000;9.194;2022-11-20T09:57:59;6.60;99.90
5476;DHT22;2760;50.000;9.194;2022-11-20T10:00:29;4.60;99.90
5476;DHT22;2760;50.000;9.194;2022-11-20T10:02:59;4.70;99.90
5476;DHT22;2760;50.000;9.194;2022-11-20T10:05:33;6.80;99.90
5476;DHT22;2760;50.000;9.194;2022-11-20T10:08:11;5.10;99.90
5476;DHT22;2760;50.000;9.194;2022-11-20T10:10:44;5.70;99.90
5476;DHT22;2760;50.000;9.194;2022-11-20T10:13:20;4.90;99.90
5476;DHT22;2760;50.000;9.194;2022-11-20T10:16:01;4.90;99.90
5476;DHT22;2760;50.000;9.194;2022-11-20T10:18:42;5.10;99.90
5476;DHT22;2760;50.000;9.194;2022-11-20T10:21:16;5.00;99.90
5476;DHT22;2760;50.000;9.194;2022-11-20T10:24:02;5.10;99.90
5476;DHT22;2760;50.000;9.194;2022-11-20T10:26:41;5.10;99.90
5476;DHT22;2760;50.000;9.194;2022-11-20T10:29:11;5.20;99.90
5476;DHT22;2760;50.000;9.194;2022-11-20T10:31:42;5.10;99.90
5476;DHT22;2760;50.000;9.194;2022-11-20T10:34:18;5.10;99.90
5476;DHT22;2760;50.000;9.194;2022-11-20T10:36:50;5.10;99.90
5476;DHT22;2760;50.000;9.194;2022-11-20T10:39:25;5.00;99.90
5476;DHT22;2760;50.000;9.194;2022-11-20T10:41:56;5.90;99.90
5476;DHT22;2760;50.000;9.194;2022-11-20T10:44:27;6.10;99.90
5476;DHT22;2760;50.000;9.194;2022-11-20T10:47:14;6.80;99.90
5476;DHT22;2760;50.000;9.194;2022-11-20T10:49:42;4.00;99.90
5476;DHT22;2760;50.000;9.194;2022-11-20T10:52:16;5.10;99.90
5476;DHT22;2760;50.000;9.194;2022-11-20T10:54:49;5.20;99.90
5476;DHT22;2760;50.000;9.194;2022-11-20T10:57:29;5.30;99.90
5476;DHT22;2760;50.000;9.194;2022-11-20T11:00:09;7.50;99.90
5476;DHT22;2760;50.000;9.194;2022-11-20T11:02:44;5.20;99.90
5476;DHT22;2760;50.000;9.194;2022-11-20T11:05:20;7.50;99.90
5476;DHT22;2760;50.000;9.194;2022-11-20T11:07:51;7.40;99.90
5476;DHT22;2760;50.000;9.194;2022-11-20T11:10:21;5.20;99.90
5476;DHT22;2760;50.000;9.194;2022-11-20T11:12:49;5.30;99.90
5476;DHT22;2760;50.000;9.194;2022-11-20T11:15:26;6.70;99.90
5476;DHT22;2760;50.000;9.194;2022-11-20T11:17:55;6.90;99.90
5476;DHT22;2760;50.000;9.194;2022-11-20T11:20:24;5.60;99.90
5476;DHT22;2760;50.000;9.194;2022-11-20T11:22:53;5.20;99.90
5476;DHT22;2760;50.000;9.194;2022-11-20T11:25:27;5.00;99.90
5476;DHT22;2760;50.000;9.194;2022-11-20T11:27:57;7.50;99.90
5476;DHT22;2760;50.000;9.194;2022-11-20T11:30:26;5.10;99.90
5476;DHT22;2760;50.000;9.194;2022-11-20T11:33:10;5.10;99.90
5476;DHT22;2760;50.000;9.194;2022-11-20T11:35:44;5.20;99.90
5476;DHT22;2760;50.000;9.194;2022-11-20T11:38:15;5.30;99.90
5476;DHT22;2760;50.000;9.194;2022-11-20T11:40:43;5.30;99.90
5476;DHT22;2760;50.000;9.194;2022-11-20T11:43:18;5.30;99.90
5476;DHT22;2760;50.000;9.194;2022-11-20T11:46:28;7.60;99.90
5476;DHT22;2760;50.000;9.194;2022-11-20T11:49:14;5.30;99.90
5476;DHT22;2760;50.000;9.194;2022-11-20T11:51:50;6.30;99.90
5476;DHT22;2760;50.000;9.194;2022-11-20T11:54:24;6.60;99.90
5476;DHT22;2760;50.000;9.194;2022-11-20T11:56:52;5.40;99.90
5476;DHT22;2760;50.000;9.194;2022-11-20T11:59:25;7.50;99.90
5476;DHT22;2760;50.000;9.194;2022-11-20T12:01:56;5.40;99.90
5476;DHT22;2760;50.000;9.194;2022-11-20T12:04:38;5.40;99.90
5476;DHT22;2760;50.000;9.194;2022-11-20T12:07:10;5.30;99.90
5476;DHT22;2760;50.000;9.194;2022-11-20T12:09:43;7.40;99.90
5476;DHT22;2760;50.000;9.194;2022-11-20T12:12:17;5.40;99.90
5476;DHT22;2760;50.000;9.194;2022-11-20T12:14:47;5.30;99.90
5476;DHT22;2760;50.000;9.194;2022-11-20T12:17:15;5.30;99.90
5476;DHT22;2760;50.000;9.194;2022-11-20T12:19:44;5.30;99.90
5476;DHT22;2760;50.000;9.194;2022-11-20T12:22:21;5.30;99.90
5476;DHT22;2760;50.000;9.194;2022-11-20T12:24:57;5.30;99.90
5476;DHT22;2760;50.000;9.194;2022-11-20T12:30:20;5.40;99.90
5476;DHT22;2760;50.000;9.194;2022-11-20T12:33:04;5.60;99.90
5476;DHT22;2760;50.000;9.194;2022-11-20T12:35:57;5.30;99.90
5476;DHT22;2760;50.000;9.194;2022-11-20T12:38:52;5.40;99.90
5476;DHT22;2760;50.000;9.194;2022-11-20T12:41:30;5.30;99.90
5476;DHT22;2760;50.000;9.194;2022-11-20T12:44:32;6.40;99.90
5476;DHT22;2760;50.000;9.194;2022-11-20T12:47:27;6.40;99.90
5476;DHT22;2760;50.000;9.194;2022-11-20T12:50:05;6.10;99.90
5476;DHT22;2760;50.000;9.194;2022-11-20T12:52:46;5.40;99.90
5476;DHT22;2760;50.000;9.194;2022-11-20T12:55:25;4.30;99.90
5476;DHT22;2760;50.000;9.194;2022-11-20T12:57:58;5.30;99.90
5476;DHT22;2760;50.000;9.194;2022-11-20T13:00:34;6.00;99.90
5476;DHT22;2760;50.000;9.194;2022-11-20T13:03:37;7.30;99.90
5476;DHT22;2760;50.000;9.194;2022-11-20T13:06:13;5.50;99.90
5476;DHT22;2760;50.000;9.194;2022-11-20T13:08:47;6.70;99.90
5476;DHT22;2760;50.000;9.194;2022-11-20T13:11:18;5.60;99.90
5476;DHT22;2760;50.000;9.194;2022-11-20T13:14:04;7.20;99.90
5476;DHT22;2760;50.000;9.194;2022-11-20T13:16:40;6.40;99.90
5476;DHT22;2760;50.000;9.194;2022-11-20T13:19:11;7.50;99.90
5476;DHT22;2760;50.000;9.194;2022-11-20T13:21:40;7.70;99.90
5476;DHT22;2760;50.000;9.194;2022-11-20T13:24:25;6.00;99.90
5476;DHT22;2760;50.000;9.194;2022-11-20T13:27:04;5.60;99.90
5476;DHT22;2760;50.000;9.194;2022-11-20T13:29:32;7.70;99.90
5476;DHT22;2760;50.000;9.194;2022-11-20T13:32:05;5.60;99.90
5476;DHT22;2760;50.000;9.194;2022-11-20T13:34:33;5.70;99.90
5476;DHT22;2760;50.000;9.194;2022-11-20T13:37:01;5.70;99.90
5476;DHT22;2760;50.000;9.194;2022-11-20T13:39:33;5.70;99.90
5476;DHT22;2760;50.000;9.194;2022-11-20T13:42:02;5.60;99.90
5476;DHT22;2760;50.000;9.194;2022-11-20T13:44:35;5.70;99.90
5476;DHT22;2760;50.000;9.194;2022-11-20T13:47:04;8.00;99.90
5476;DHT22;2760;50.000;9.194;2022-11-20T13:49:44;5.80;99.90
5476;DHT22;2760;50.000;9.194;2022-11-20T13:52:30;6.40;99.90
5476;DHT22;2760;50.000;9.194;2022-11-20T13:55:12;8.20;99.90
5476;DHT22;2760;50.000;9.194;2022-11-20T13:58:05;5.70;99.90
5476;DHT22;2760;50.000;9.194;2022-11-20T14:00:44;6.40;99.90
5476;DHT22;2760;50.000;9.194;2022-11-20T14:03:18;5.90;99.90
5476;DHT22;2760;50.000;9.194;2022-11-20T14:05:51;7.00;99.90
5476;DHT22;2760;50.000;9.194;2022-11-20T14:08:26;7.50;99.90
5476;DHT22;2760;50.000;9.194;2022-11-20T14:11:14;8.20;99.90
5476;DHT22;2760;50.000;9.194;2022-11-20T14:13:55;3.80;99.90
5476;DHT22;2760;50.000;9.194;2022-11-20T14:16:23;4.20;99.90
5476;DHT22;2760;50.000;9.194;2022-11-20T14:18:52;7.80;99.90
5476;DHT22;2760;50.000;9.194;2022-11-20T14:21:25;5.70;99.90
5476;DHT22;2760;50.000;9.194;2022-11-20T14:24:03;5.70;99.90
5476;DHT22;2760;50.000;9.194;2022-11-20T14:26:32;5.60;99.90
5476;DHT22;2760;50.000;9.194;2022-11-20T14:29:00;6.10;99.90
5476;DHT22;2760;50.000;9.194;2022-11-20T14:31:27;7.20;99.90
5476;DHT22;2760;50.000;9.194;2022-11-20T14:33:55;5.60;99.90
5476;DHT22;2760;50.000;9.194;2022-11-20T14:36:25;7.80;99.90
5476;DHT22;2760;50.000;9.194;2022-11-20T14:38:53;5.30;99.90
5476;DHT22;2760;50.000;9.194;2022-11-20T14:41:21;5.50;99.90
5476;DHT22;2760;50.000;9.194;2022-11-20T14:43:54;6.20;99.90
5476;DHT22;2760;50.000;9.194;2022-11-20T14:46:22;6.00;99.90
5476;DHT22;2760;50.000;9.194;2022-11-20T14:48:51;7.70;99.90
5476;DHT22;2760;50.000;9.194;2022-11-20T14:51:30;5.50;99.90
5476;DHT22;2760;50.000;9.194;2022-11-20T14:54:08;7.50;99.90
5476;DHT22;2760;50.000;9.194;2022-11-20T14:56:36;6.90;99.90
5476;DHT22;2760;50.000;9.194;2022-11-20T14:59:04;5.60;99.90
5476;DHT22;2760;50.000;9.194;2022-11-20T15:01:32;5.70;99.90
5476;DHT22;2760;50.000;9.194;2022-11-20T15:04:05;5.60;99.90
5476;DHT22;2760;50.000;9.194;2022-11-20T15:06:33;5.60;99.90
5476;DHT22;2760;50.000;9.194;2022-11-20T15:09:02;5.50;99.90
5476;DHT22;2760;50.000;9.194;2022-11-20T15:11:31;7.70;99.90
5476;DHT22;2760;50.000;9.194;2022-11-20T15:14:02;6.90;99.90
5476;DHT22;2760;50.000;9.194;2022-11-20T15:16:32;5.50;99.90
5476;DHT22;2760;50.000;9.194;2022-11-20T15:19:00;5.50;99.90
5476;DHT22;2760;50.000;9.194;2022-11-20T15:21:29;7.80;99.90
5476;DHT22;2760;50.000;9.194;2022-11-20T15:23:56;6.50;99.90
5476;DHT22;2760;50.000;9.194;2022-11-20T15:26:26;6.90;99.90
5476;DHT22;2760;50.000;9.194;2022-11-20T15:28:54;5.50;99.90
5476;DHT22;2760;50.000;9.194;2022-11-20T15:31:22;6.50;99.90
5476;DHT22;2760;50.000;9.194;2022-11-20T15:33:51;7.70;99.90
5476;DHT22;2760;50.000;9.194;2022-11-20T15:36:18;6.50;99.90
5476;DHT22;2760;50.000;9.194;2022-11-20T15:38:45;6.00;99.90
5476;DHT22;2760;50.000;9.194;2022-11-20T15:41:14;5.40;99.90
5476;DHT22;2760;50.000;9.194;2022-11-20T15:43:41;6.10;99.90
5476;DHT22;2760;50.000;9.194;2022-11-20T15:46:12;5.40;99.90
5476;DHT22;2760;50.000;9.194;2022-11-20T15:48:43;5.50;99.90
5476;DHT22;2760;50.000;9.194;2022-11-20T15:51:20;3.90;99.90
5476;DHT22;2760;50.000;9.194;2022-11-20T15:53:48;5.40;99.90
5476;DHT22;2760;50.000;9.194;2022-11-20T15:56:16;5.50;99.90
5476;DHT22;2760;50.000;9.194;2022-11-20T15:58:44;6.80;99.90
5476;DHT22;2760;50.000;9.194;2022-11-20T16:01:14;5.50;99.90
5476;DHT22;2760;50.000;9.194;2022-11-20T16:03:41;7.70;99.90
5476;DHT22;2760;50.000;9.194;2022-11-20T16:06:09;5.40;99.90
5476;DHT22;2760;50.000;9.194;2022-11-20T16:08:38;6.70;99.90
5476;DHT22;2760;50.000;9.194;2022-11-20T16:11:05;5.40;99.90
5476;DHT22;2760;50.000;9.194;2022-11-20T16:13:33;5.40;99.90
5476;DHT22;2760;50.000;9.194;2022-11-20T16:16:20;5.50;99.90
5476;DHT22;2760;50.000;9.194;2022-11-20T16:18:48;6.40;99.90
5476;DHT22;2760;50.000;9.194;2022-11-20T16:21:16;5.60;99.90
5476;DHT22;2760;50.000;9.194;2022-11-20T16:23:44;5.20;99.90
5476;DHT22;2760;50.000;9.194;2022-11-20T16:26:12;5.10;99.90
5476;DHT22;2760;50.000;9.194;2022-11-20T16:28:42;7.30;99.90
5476;DHT22;2760;50.000;9.194;2022-11-20T16:31:11;5.20;99.90
5476;DHT22;2760;50.000;9.194;2022-11-20T16:33:39;6.60;99.90
5476;DHT22;2760;50.000;9.194;2022-11-20T16:36:07;5.10;99.90
5476;DHT22;2760;50.000;9.194;2022-11-20T16:38:34;5.10;99.90
5476;DHT22;2760;50.000;9.194;2022-11-20T16:41:03;6.20;99.90